• Join FlightAware (Why Join?)
  • Login
  • US Flag 
06:40PM EDT


 

Airport Tracker/Info


-or-


 

Live Flight TrackerFlight Track Log ✈ SKW6425 ✈ 18-Jul-2013 ✈ CYQR - KORD

Flight Track Log - Related Links

Times and Time Zones

All times are in EDT time to prevent confusion due to time zone crossing. See the SKW6425 flight status page for this flight to view local times or setup timezone preferences in your user account.

Time Position Orientation Groundspeed Altitude Reporting Facility
EDT Latitude Longitude Course Direction KTS MPH feet Rate Location/Type
09:45AM 50.3833 -104.6333 54° Northeast 170 196 3,500  Level Winnipeg Center
09:46AM 50.3500 -104.5500 122° Southeast 220 253 5,400 1,740 Climbing Winnipeg Center
09:47AM 50.3000 -104.4667 133° Southeast 280 322 7,000 1,800 Climbing Winnipeg Center
09:48AM 50.1868 -104.0017 90° East  Level Estimated
09:48AM 50.2667 -104.3500 114° Southeast 300 345 9,100  Level Winnipeg Center
09:49AM 50.1249 -103.8367 93° East  Level Estimated
09:49AM 50.2167 -104.2500 128° Southeast 310 357 11,400  Level Winnipeg Center
09:50AM 50.1945 -103.6888 54° Northeast  Level FlightAware Approximate
09:50AM 50.1667 -104.1000 117° Southeast 330 380 12,600  Level Winnipeg Center
09:51AM 50.1167 -103.9667 120° Southeast 360 414 14,400 1,560 Climbing Winnipeg Center
09:52AM 50.0500 -103.8500 132° Southeast 370 426 15,800 1,380 Climbing Winnipeg Center
09:53AM 50.0000 -103.7167 120° Southeast 380 437 17,200 1,260 Climbing Winnipeg Center
09:54AM 49.9333 -103.5667 125° Southeast 390 449 18,400 1,200 Climbing Winnipeg Center
09:55AM 49.8833 -103.4333 120° Southeast 390 449 19,600 1,080 Climbing Winnipeg Center
09:56AM 49.8167 -103.2667 122° Southeast 400 460 20,600 900 Climbing Winnipeg Center
09:57AM 49.7667 -103.1333 120° Southeast 410 472 21,500 900 Climbing Winnipeg Center
09:58AM 49.6833 -102.9667 128° Southeast 420 483 22,500 900 Climbing Winnipeg Center
09:59AM 49.6333 -102.8333 120° Southeast 420 483 23,400 900 Climbing Winnipeg Center
10:00AM 49.5500 -102.6667 128° Southeast 430 495 24,300 780 Climbing Winnipeg Center
10:01AM 49.5000 -102.5333 120° Southeast 430 495 25,000 600 Climbing Winnipeg Center
10:02AM 49.4167 -102.3667 128° Southeast 430 495 25,600 600 Climbing Winnipeg Center
10:03AM 49.3500 -102.2000 122° Southeast 440 506 26,300 540 Climbing Winnipeg Center
10:04AM 49.2833 -102.0500 124° Southeast 440 506 26,700 420 Climbing Winnipeg Center
10:05AM 49.2167 -101.8833 121° Southeast 450 518 27,200 480 Climbing Winnipeg Center
10:06AM 49.1500 -101.7167 121° Southeast 450 518 27,700 540 Climbing Winnipeg Center
10:06AM 49.0667 -101.5667 130° Southeast 460 529 28,300 480 Climbing Winnipeg Center
10:08AM 49.0000 -101.4333 127° Southeast 460 529 28,700 420 Climbing Winnipeg Center
10:09AM 48.9333 -101.2500 119° Southeast 460 529 29,200 360 Climbing Winnipeg Center
10:10AM 48.8500 -101.0833 127° Southeast 460 529 29,500 300 Climbing Winnipeg Center
10:11AM 48.7667 -100.9333 130° Southeast 470 541 29,800 300 Climbing Winnipeg Center
10:12AM 48.7000 -100.7667 121° Southeast 470 541 30,100 300 Climbing Winnipeg Center
10:13AM 48.6167 -100.5833 124° Southeast 480 552 30,500 360 Climbing Winnipeg Center
10:13AM 48.5333 -100.4500 133° Southeast 480 552 30,900 360 Climbing Winnipeg Center
10:14AM 48.5269 -100.3636 96° East 474 545 31,100 360 Climbing Minneapolis Center
10:15AM 48.4528 -100.2025 125° Southeast 471 542 31,500 360 Climbing Minneapolis Center
10:16AM 48.3756 -100.0433 126° Southeast 472 543 31,900 360 Climbing Minneapolis Center
10:17AM 48.2997 -99.8867 126° Southeast 468 539 32,300 360 Climbing Minneapolis Center
10:18AM 48.2244 -99.7300 126° Southeast 465 535 32,700 300 Climbing Minneapolis Center
10:19AM 48.1336 -99.5439 126° Southeast 464 534 33,000 120 Climbing Minneapolis Center
10:20AM 48.0592 -99.3836 125° Southeast 469 540 33,000  Level Minneapolis Center
10:21AM 47.9806 -99.2239 126° Southeast 476 548 33,000  Level Minneapolis Center
10:22AM 47.8839 -99.0317 127° Southeast 482 555 33,000  Level Minneapolis Center
10:24AM 47.8022 -98.8689 127° Southeast 490 564 33,000  Level Minneapolis Center
10:25AM 47.7203 -98.7053 127° Southeast 493 567 33,000  Level Minneapolis Center
10:26AM 47.6214 -98.5106 127° Southeast 495 570 33,000  Level Minneapolis Center
10:27AM 47.5392 -98.3506 127° Southeast 494 568 33,000  Level Minneapolis Center
10:28AM 47.4572 -98.1922 127° Southeast 493 567 33,000  Level Minneapolis Center
10:29AM 47.3758 -98.0336 127° Southeast 495 570 33,000  Level Minneapolis Center
10:30AM 47.2778 -97.8461 128° Southeast 494 568 33,000  Level Minneapolis Center
10:31AM 47.2106 -97.7153 127° Southeast 491 565 33,000  Level Minneapolis Center
10:32AM 47.1150 -97.5319 127° Southeast 487 560 33,000  Level Minneapolis Center
10:33AM 47.0328 -97.3767 128° Southeast 486 559 33,000  Level Minneapolis Center
10:34AM 46.9514 -97.2231 128° Southeast 481 554 33,000  Level Minneapolis Center
10:35AM 46.8531 -97.0386 128° Southeast 481 554 33,000  Level Minneapolis Center
10:36AM 46.7700 -96.8839 128° Southeast 484 557 33,000  Level Minneapolis Center
10:37AM 46.6831 -96.7394 131° Southeast 477 549 33,000  Level Minneapolis Center
10:38AM 46.5922 -96.5997 133° Southeast 476 548 33,000  Level Minneapolis Center
10:39AM 46.5031 -96.4561 132° Southeast 480 552 33,000  Level Minneapolis Center
10:40AM 46.3947 -96.2864 133° Southeast 479 551 33,000  Level Minneapolis Center
10:41AM 46.3044 -96.1442 133° Southeast 481 554 33,000  Level Minneapolis Center
10:42AM 46.2144 -96.0036 133° Southeast 480 552 33,000  Level Minneapolis Center
10:43AM 46.1278 -95.8694 133° Southeast 478 550 33,000  Level Minneapolis Center
10:44AM 46.0186 -95.7014 133° Southeast 479 551 33,000  Level Minneapolis Center
10:45AM 45.9278 -95.5625 133° Southeast 478 550 33,000  Level Minneapolis Center
10:46AM 45.8367 -95.4233 133° Southeast 479 551 33,000  Level Minneapolis Center
10:47AM 45.7456 -95.2839 133° Southeast 479 551 33,000  Level Minneapolis Center
10:48AM 45.6542 -95.1478 134° Southeast 477 549 33,000  Level Minneapolis Center
10:49AM 45.5503 -94.9911 133° Southeast 476 548 33,000  Level Minneapolis Center
10:50AM 45.4594 -94.8561 134° Southeast 474 545 33,000  Level Minneapolis Center
10:51AM 45.3647 -94.7111 133° Southeast 469 540 33,000  Level Minneapolis Center
10:52AM 45.2786 -94.5881 135° Southeast 471 542 33,000  Level Minneapolis Center
10:54AM 45.1903 -94.4542 133° Southeast 468 539 33,000  Level Minneapolis Center
10:55AM 45.0825 -94.2975 134° Southeast 465 535 33,000  Level Minneapolis Center
10:56AM 44.9936 -94.1669 134° Southeast 465 535 33,000  Level Minneapolis Center
10:57AM 44.9039 -94.0389 135° Southeast 462 532 33,000  Level Minneapolis Center
10:58AM 44.8136 -93.9100 135° Southeast 464 534 33,000 -300 Level Minneapolis Center
10:59AM 44.7247 -93.7817 134° Southeast 460 529 32,500 -1,020 Descending Minneapolis Center
11:00AM 44.6172 -93.6297 135° Southeast 462 532 31,000 -780 Descending Minneapolis Center
11:01AM 44.5297 -93.5067 135° Southeast 453 521 31,000  Level Minneapolis Center
11:02AM 44.4444 -93.3853 135° Southeast 444 511 31,000  Level Minneapolis Center
11:03AM 44.3567 -93.2628 135° Southeast 449 517 31,000  Level Minneapolis Center
11:04AM 44.2681 -93.1367 134° Southeast 457 526 31,000  Level Minneapolis Center
11:05AM 44.1603 -92.9858 135° Southeast 460 529 31,000  Level Minneapolis Center
11:06AM 44.0875 -92.8833 135° Southeast 465 535 31,000  Level Minneapolis Center
11:07AM 43.9769 -92.7322 135° Southeast 466 536 31,000  Level Minneapolis Center
11:08AM 43.8836 -92.6058 136° Southeast 468 539 31,000  Level Minneapolis Center
11:09AM 43.7928 -92.4775 134° Southeast 467 537 31,000  Level Minneapolis Center
11:10AM 43.6997 -92.3511 136° Southeast 471 542 31,000  Level Minneapolis Center
11:11AM 43.5900 -92.2019 135° Southeast 465 535 31,000  Level Minneapolis Center
11:12AM 43.4986 -92.0811 136° Southeast 460 529 31,000  Level Minneapolis Center
11:13AM 43.4075 -91.9589 136° Southeast 460 529 31,000  Level Minneapolis Center
11:14AM 43.3172 -91.8344 135° Southeast 460 529 31,000  Level Minneapolis Center
11:15AM 43.2253 -91.7131 136° Southeast 462 532 31,000  Level Minneapolis Center
11:16AM 43.1456 -91.5375 122° Southeast 462 532 31,000  Level Minneapolis Center
11:17AM 43.0906 -91.3800 116° Southeast 459 528 31,000  Level Minneapolis Center
11:18AM 43.0347 -91.2247 116° Southeast 457 526 31,000  Level Minneapolis Center
11:19AM 42.9794 -91.0683 116° Southeast 458 527 31,000  Level Minneapolis Center
11:20AM 42.9253 -90.9144 116° Southeast 455 524 31,000  Level Minneapolis Center
11:21AM 42.8706 -90.7603 116° Southeast 453 521 31,000  Level Minneapolis Center
11:23AM 42.7858 -90.5169 115° Southeast 452 520 31,000  Level Chicago Center
11:24AM 42.7303 -90.3633 116° Southeast 455 524 31,000 -780 Level Chicago Center
11:25AM 42.6744 -90.2072 116° Southeast 463 533 29,400 -1,800 Descending Chicago Center
11:26AM 42.6144 -90.0475 117° Southeast 477 549 27,400 -2,100 Descending Chicago Center
11:27AM 42.5519 -89.8700 115° Southeast 462 532 25,200 -2,100 Descending Chicago Center
11:28AM 42.5183 -89.7044 105° East 461 531 23,100 -2,040 Descending Chicago Center
11:29AM 42.5131 -89.5344 92° East 455 524 21,100 -2,100 Descending Chicago Center
11:30AM 42.5106 -89.3397 91° East 445 512 18,800 -2,040 Descending Chicago Center
11:31AM 42.5083 -89.1758 91° East 437 503 17,000 -1,860 Descending Chicago Center
11:32AM 42.5067 -89.0175 91° East 423 487 15,000 -1,920 Descending Chicago Center
11:33AM 42.4864 -88.8689 100° East 407 468 13,100 -1,380 Descending Chicago Center
11:34AM 42.4436 -88.7306 113° Southeast 398 458 12,200 -1,140 Descending Chicago Center
11:35AM 42.3964 -88.5753 112° Southeast 382 440 10,800 -1,080 Descending Chicago Center
11:36AM 42.3586 -88.4481 112° Southeast 369 425 10,000 -420 Descending Chicago Center
11:37AM 42.3083 -88.3383 122° Southeast 358 412 10,000  Level Chicago Center
11:38AM 42.2447 -88.2333 129° Southeast 360 414 10,000 -180 Level Chicago Center
11:39AM 42.1864 -88.1347 129° Southeast 341 392 9,700 -1,080 Descending Chicago Center
11:40AM 42.1261 -88.0669 140° Southeast 292 336 7,800 -1,440 Descending Chicago Center
11:41AM 42.1000 -87.9667 109° East 293 337 7,000 -540 Descending Chicago TRACON
11:42AM 42.1000 -87.8667 90° East 276 318 6,800 -1,140 Descending Chicago TRACON
11:44AM 42.0800 -87.7628 105° East 250 288 4,500 -1,740 Descending Chicago Center
11:45AM 42.0389 -87.7111 137° Southeast 244 281 3,000 -1,500 Descending Chicago Center